• Join FlightAware (Why Join?)
  • Login
  • US Flag 
06:48PM EDT


 

Airport Tracker/Info


-or-


 

Live Flight TrackerFlight Track Log ✈ SWA7 ✈ 05-Feb-2014 ✈ KDAL - KHOU

Flight Track Log - Related Links

Times and Time Zones

All times are in EST time to prevent confusion due to time zone crossing. See the SWA7 flight status page for this flight to view local times or setup timezone preferences in your user account.

Time Position Orientation Groundspeed Altitude Reporting Facility
EST Latitude Longitude Course Direction KTS MPH feet Rate Location/Type
09:41AM 32.8500 -96.8667 320° Northwest 130 150 1,400  Level Dallas / Fort Worth TRACON
09:42AM 32.8833 -96.9000 320° Northwest 179 206 4,000 2,520 Climbing Dallas / Fort Worth TRACON
09:43AM 32.8833 -96.9667 270° West 226 260 6,800 2,820 Climbing Dallas / Fort Worth TRACON
09:46AM 32.7106 -96.9783 183° South 318 366 13,600 3,060 Climbing Fort Worth Center
09:47AM 32.6058 -96.9683 175° South 343 395 17,400 3,060 Climbing Fort Worth Center
09:48AM 32.5044 -96.9592 176° South 362 417 20,000 2,640 Climbing Fort Worth Center
09:49AM 32.3958 -96.9481 175° South 380 437 22,900 2,580 Climbing Fort Worth Center
09:50AM 32.2942 -96.9397 176° South 386 444 25,400 2,280 Climbing Fort Worth Center
09:51AM 32.1803 -96.9194 171° South 406 467 27,600 2,280 Climbing Fort Worth Center
09:52AM 32.0692 -96.8994 171° South 410 472 30,100 2,280 Climbing Fort Worth Center
09:53AM 31.9522 -96.8808 172° South 408 470 32,400 1,560 Climbing Fort Worth Center
09:54AM 31.8569 -96.8631 171° South 405 466 33,000 300 Climbing Houston Center
09:55AM 31.7458 -96.8444 172° South 400 460 33,000  Level Houston Center
09:56AM 31.6347 -96.8261 172° South 397 457 33,000  Level Houston Center
09:57AM 31.5050 -96.8053 172° South 397 457 33,000 -360 Level Houston Center
09:58AM 31.3942 -96.7867 172° South 397 457 32,300 -780 Descending Houston Center
09:59AM 31.2819 -96.7697 173° South 400 460 31,400 -1,020 Descending Houston Center
10:00AM 31.1703 -96.7519 172° South 400 460 30,300 -1,020 Descending Houston Center
10:01AM 31.0611 -96.7347 172° South 392 451 29,300 -1,260 Descending Houston Center
10:02AM 30.9544 -96.7178 172° South 383 441 27,800 -1,680 Descending Houston Center
10:03AM 30.8503 -96.7019 173° South 374 430 25,800 -1,920 Descending Houston Center
10:04AM 30.7489 -96.6856 172° South 365 420 23,900 -1,860 Descending Houston Center
10:05AM 30.6508 -96.6706 173° South 354 407 22,000 -2,040 Descending Houston Center
10:06AM 30.5464 -96.6156 156° South 369 425 19,700 -2,040 Descending Houston Center
10:07AM 30.4725 -96.5261 134° Southeast 379 436 17,900 -1,800 Descending Houston Center
10:08AM 30.3947 -96.4336 134° Southeast 376 433 16,000 -1,800 Descending Houston Center
10:09AM 30.3408 -96.3669 133° Southeast 366 421 14,700 -1,800 Descending Houston Center
10:09AM 30.3289 -96.3519 133° Southeast 368 423 14,200 -1,740 Descending Houston Center
10:10AM 30.2689 -96.2833 135° Southeast 338 389 12,800 -1,740 Descending Houston Center
10:10AM 30.2622 -96.2747 132° Southeast 340 391 12,400 -1,860 Descending Houston Center
10:11AM 30.2083 -96.2128 135° Southeast 335 386 11,100 -1,380 Descending Houston Center
10:11AM 30.1953 -96.1994 139° Southeast 333 383 11,000 -120 Descending Houston Center
10:12AM 30.1178 -96.1600 156° South 308 354 11,000  Level Houston Center
10:12AM 30.1056 -96.1525 152° Southeast 315 362 11,000  Level Houston Center
10:13AM 30.0544 -96.1044 141° Southeast 327 376 11,000  Level Houston Center
10:13AM 30.0383 -96.0850 134° Southeast 326 375 11,000  Level Houston Center
10:14AM 29.9872 -96.0325 138° Southeast 321 369 11,000  Level Houston Center
10:14AM 29.9686 -96.0106 134° Southeast 321 369 11,000  Level Houston Center
10:15AM 29.9222 -95.9606 137° Southeast 323 372 11,000 -120 Level Houston Center
10:16AM 29.9025 -95.9400 138° Southeast 323 372 10,900 -900 Descending Houston Center
10:16AM 29.8486 -95.8847 138° Southeast 308 354 10,000 -1,020 Descending Houston Center
10:17AM 29.8400 -95.8725 129° Southeast 313 360 9,900 -1,020 Descending Houston Center
10:17AM 29.7881 -95.8169 137° Southeast 304 350 9,000 -1,080 Descending Houston Center
10:18AM 29.7786 -95.8072 138° Southeast 304 350 8,800 -1,020 Descending Houston Center
10:18AM 29.7278 -95.7519 137° Southeast 291 335 8,000 -900 Descending Houston Center
10:19AM 29.7194 -95.7433 138° Southeast 295 339 7,900 -1,020 Descending Houston Center
10:19AM 29.6697 -95.6914 138° Southeast 260 299 7,000 -1,200 Descending Houston Center
10:20AM 29.6567 -95.6761 135° Southeast 262 302 6,700 -780 Descending Houston Center
10:20AM 29.6211 -95.6392 138° Southeast 226 260 6,200 -720 Descending Houston Center
10:21AM 29.6086 -95.6253 136° Southeast 243 280 6,000 -240 Descending Houston Center
10:21AM 29.5792 -95.5939 137° Southeast 223 257 6,000 -120 Level Houston Center
10:22AM 29.5633 -95.5794 142° Southeast 226 260 5,900 -600 Descending Houston Center
10:22AM 29.5256 -95.5592 155° Southeast 217 250 5,400 -720 Descending Houston Center
10:23AM 29.5100 -95.5467 145° Southeast 220 253 5,200 -720 Descending Houston Center
10:23AM 29.4764 -95.5242 150° Southeast 209 241 4,700 -720 Descending Houston Center
10:24AM 29.4736 -95.5044 99° East 216 249 4,500 -840 Descending Houston Center
10:24AM 29.4833 -95.4633 75° East 180 207 3,900 -1,020 Descending Houston Center
10:25AM 29.4947 -95.4433 57° Northeast 178 205 3,500 -840 Descending Houston Center
10:25AM 29.5133 -95.4239 42° Northeast 164 189 3,100 -720 Descending Houston Center
10:26AM 29.5286 -95.4069 44° Northeast 168 193 2,800 -600 Descending Houston Center
10:26AM 29.5439 -95.3892 45° Northeast 150 173 2,500 -540 Descending Houston Center
10:27AM 29.5586 -95.3742 42° Northeast 159 183 2,300 -720 Descending Houston Center
10:27AM 29.5744 -95.3567 44° Northeast 142 163 1,800 -720 Descending Houston Center
10:28AM 29.5858 -95.3433 46° Northeast 148 170 1,600 -720 Descending Houston Center
10:28AM 29.6011 -95.3269 43° Northeast 121 139 1,100 -720 Descending Houston Center
10:29AM 29.6097 -95.3169 45° Northeast 132 152 900 -600 Descending Houston Center
10:29AM 29.6242 -95.3025 41° Northeast 117 135 500 -720 Descending Houston Center
10:30AM 29.6336 -95.2925 43° Northeast 121 139 200 -540 Descending Houston Center
10:32AM 29.6333 -95.2667 90° East  Level FlightAware Approximate